createdAt,value
2023-05-19T00:00:58.005Z,14.92
2023-05-19T00:03:24.997Z,14.93
2023-05-19T00:05:53.792Z,14.98
2023-05-19T00:08:20.838Z,15.01
2023-05-19T00:10:47.830Z,15.00
2023-05-19T00:13:14.787Z,14.93
2023-05-19T00:15:41.833Z,14.94
2023-05-19T00:18:09.171Z,14.93
2023-05-19T00:20:37.880Z,14.97
2023-05-19T00:23:04.814Z,15.00
2023-05-19T00:25:31.634Z,14.94
2023-05-19T00:27:59.990Z,14.97
2023-05-19T00:30:27.037Z,14.98
2023-05-19T00:32:54.004Z,14.93
2023-05-19T00:35:21.090Z,14.87
2023-05-19T00:37:48.940Z,14.84
2023-05-19T00:40:15.779Z,14.81
2023-05-19T00:42:42.850Z,14.73
2023-05-19T00:45:09.778Z,14.64
2023-05-19T00:47:36.715Z,14.62
2023-05-19T00:50:03.974Z,14.65
2023-05-19T00:52:30.939Z,14.66
2023-05-19T00:54:57.708Z,14.65
2023-05-19T00:57:24.666Z,14.61
2023-05-19T00:59:51.457Z,14.57
2023-05-19T01:02:18.245Z,14.55
2023-05-19T01:04:45.191Z,14.49
2023-05-19T01:07:12.645Z,14.45
2023-05-19T01:09:40.916Z,14.43
2023-05-19T01:12:08.697Z,14.38
2023-05-19T01:14:35.528Z,14.24
2023-05-19T01:17:10.165Z,14.19
2023-05-19T01:19:41.672Z,14.19
2023-05-19T01:22:23.215Z,14.19
2023-05-19T01:24:59.480Z,14.19
2023-05-19T01:27:32.525Z,14.24
2023-05-19T01:30:06.199Z,14.23
2023-05-19T01:32:33.158Z,14.19
2023-05-19T01:43:43.332Z,13.98
2023-05-19T01:46:10.217Z,13.96
2023-05-19T01:48:37.319Z,13.89
2023-05-19T01:51:04.322Z,13.83
2023-05-19T01:53:31.164Z,13.81
2023-05-19T01:56:00.289Z,13.81
2023-05-19T01:58:46.463Z,13.83
2023-05-19T02:01:13.437Z,13.74
2023-05-19T02:03:43.842Z,13.68
2023-05-19T02:06:15.017Z,13.66
2023-05-19T02:08:43.492Z,13.59
2023-05-19T02:11:13.510Z,13.49
2023-05-19T02:13:41.315Z,13.37
2023-05-19T02:16:09.485Z,13.23
2023-05-19T02:18:39.221Z,13.08
2023-05-19T02:21:07.036Z,13.01
2023-05-19T02:23:34.294Z,12.96
2023-05-19T02:26:01.472Z,12.93
2023-05-19T02:28:28.625Z,12.87
2023-05-19T02:30:55.523Z,12.85
2023-05-19T02:33:24.780Z,12.87
2023-05-19T02:35:51.603Z,12.80
2023-05-19T02:38:18.614Z,12.72
2023-05-19T02:40:45.483Z,12.66
2023-05-19T02:43:12.363Z,12.72
2023-05-19T02:45:40.827Z,12.67
2023-05-19T02:48:07.782Z,12.60
2023-05-19T02:50:34.916Z,12.57
2023-05-19T02:53:02.599Z,12.50
2023-05-19T02:55:29.897Z,12.43
2023-05-19T02:57:56.777Z,12.35
2023-05-19T03:00:23.575Z,12.22
2023-05-19T03:02:53.136Z,12.03
2023-05-19T03:05:20.338Z,11.92
2023-05-19T03:07:50.267Z,11.92
2023-05-19T03:10:17.404Z,11.96
2023-05-19T03:12:44.654Z,11.91
2023-05-19T03:15:13.334Z,11.86
2023-05-19T03:17:40.980Z,11.87
2023-05-19T03:20:08.184Z,11.78
2023-05-19T03:22:35.069Z,11.76
2023-05-19T03:25:02.522Z,11.75
2023-05-19T03:27:30.393Z,11.74
2023-05-19T03:29:57.202Z,11.68
2023-05-19T03:32:24.392Z,11.66
2023-05-19T03:34:51.575Z,11.65
2023-05-19T03:37:18.844Z,11.63
2023-05-19T03:39:45.796Z,11.68
2023-05-19T03:42:12.640Z,11.73
2023-05-19T03:44:39.666Z,11.77
2023-05-19T03:47:06.660Z,11.85
2023-05-19T03:49:42.318Z,11.87
2023-05-19T03:52:43.412Z,11.84
2023-05-19T03:55:21.729Z,11.87
2023-05-19T04:00:46.195Z,11.86
2023-05-19T04:03:14.581Z,11.80
2023-05-19T04:05:41.513Z,11.84
2023-05-19T04:08:10.907Z,11.92
2023-05-19T04:10:37.793Z,11.95
2023-05-19T04:13:04.686Z,11.98
2023-05-19T04:15:31.624Z,12.02
2023-05-19T04:17:58.487Z,12.17
2023-05-19T04:20:25.442Z,12.26
2023-05-19T04:22:52.434Z,12.32
2023-05-19T04:25:20.336Z,12.23
2023-05-19T04:27:48.696Z,12.07
2023-05-19T04:30:22.494Z,12.01
2023-05-19T04:32:54.178Z,12.07
2023-05-19T04:35:21.291Z,12.16
2023-05-19T04:37:48.879Z,12.21
2023-05-19T04:40:21.216Z,12.27
2023-05-19T04:42:49.948Z,12.35
2023-05-19T04:45:17.230Z,12.35
2023-05-19T04:47:52.204Z,12.28
2023-05-19T04:50:24.887Z,12.24
2023-05-19T04:52:52.552Z,12.14
2023-05-19T04:55:21.995Z,12.13
2023-05-19T04:57:50.310Z,12.14
2023-05-19T05:00:17.506Z,12.11
2023-05-19T05:02:58.561Z,11.98
2023-05-19T05:05:28.322Z,11.90
2023-05-19T05:07:58.715Z,11.81
2023-05-19T05:10:28.245Z,11.80
2023-05-19T05:12:55.335Z,11.68
2023-05-19T05:15:22.660Z,11.71
2023-05-19T05:17:50.590Z,11.78
2023-05-19T05:20:19.738Z,11.73
2023-05-19T05:22:46.873Z,11.70
2023-05-19T05:25:15.051Z,11.62
2023-05-19T05:27:42.705Z,11.63
2023-05-19T05:30:09.775Z,11.68
2023-05-19T05:32:39.625Z,11.73
2023-05-19T05:35:12.923Z,11.71
2023-05-19T05:37:40.541Z,11.66
2023-05-19T05:40:08.210Z,11.62
2023-05-19T05:42:35.870Z,11.64
2023-05-19T05:45:03.375Z,11.61
2023-05-19T05:47:31.687Z,11.55
2023-05-19T05:50:02.587Z,11.45
2023-05-19T05:52:30.825Z,11.47
2023-05-19T05:54:59.518Z,11.49
2023-05-19T05:57:27.199Z,11.52
2023-05-19T05:59:54.463Z,11.58
2023-05-19T06:02:22.002Z,11.61
2023-05-19T06:05:16.844Z,11.53
2023-05-19T06:07:45.937Z,11.56
2023-05-19T06:10:45.166Z,11.56
2023-05-19T06:13:22.460Z,11.60
2023-05-19T06:15:53.217Z,11.63
2023-05-19T06:18:27.411Z,11.69
2023-05-19T06:20:56.445Z,11.74
2023-05-19T06:23:24.266Z,11.72
2023-05-19T06:44:11.808Z,12.29
2023-05-19T06:46:38.827Z,12.36
2023-05-19T06:49:05.817Z,12.44
2023-05-19T06:51:38.317Z,12.40
2023-05-19T06:54:05.742Z,12.48
2023-05-19T06:56:57.880Z,12.57
2023-05-19T06:59:24.993Z,12.72
2023-05-19T07:01:52.035Z,12.99
2023-05-19T07:04:19.544Z,13.19
2023-05-19T07:06:46.595Z,13.34
2023-05-19T07:09:13.421Z,13.49
2023-05-19T07:11:41.064Z,13.46
2023-05-19T07:14:08.699Z,13.50
2023-05-19T07:25:49.568Z,14.13
2023-05-19T07:28:16.982Z,14.08
2023-05-19T07:30:44.295Z,14.12
2023-05-19T07:33:11.340Z,14.09
2023-05-19T07:35:39.141Z,14.16
2023-05-19T07:38:07.576Z,14.03
2023-05-19T07:40:34.900Z,13.94
2023-05-19T07:43:01.843Z,14.00
2023-05-19T07:45:28.748Z,13.88
2023-05-19T07:48:14.380Z,13.75
2023-05-19T07:50:41.254Z,14.03
2023-05-19T07:53:08.459Z,14.18
2023-05-19T07:55:38.133Z,14.22
2023-05-19T07:58:05.003Z,14.40
2023-05-19T08:00:32.201Z,14.47
2023-05-19T08:03:00.235Z,14.55
2023-05-19T08:05:27.579Z,14.76
2023-05-19T08:07:54.850Z,14.79
2023-05-19T08:10:21.696Z,14.83
2023-05-19T08:12:48.759Z,14.92
2023-05-19T08:15:18.481Z,15.10
2023-05-19T08:17:46.089Z,15.01
2023-05-19T08:20:13.299Z,15.16
2023-05-19T08:22:40.217Z,15.08
2023-05-19T08:25:07.630Z,15.03
2023-05-19T08:27:34.642Z,15.17
2023-05-19T08:30:05.123Z,15.57
2023-05-19T08:32:32.152Z,15.68
2023-05-19T08:34:59.076Z,15.84
2023-05-19T08:37:26.168Z,16.18
2023-05-19T08:39:53.080Z,16.55
2023-05-19T08:42:19.967Z,16.52
2023-05-19T08:44:46.801Z,16.37
2023-05-19T08:47:14.122Z,16.18
2023-05-19T08:49:51.420Z,16.23
2023-05-19T09:03:17.461Z,18.65
2023-05-19T09:05:46.804Z,19.31
2023-05-19T09:08:13.909Z,18.28
2023-05-19T09:10:41.957Z,18.31
2023-05-19T09:13:08.772Z,18.42
2023-05-19T09:15:38.226Z,19.25
2023-05-19T09:18:09.047Z,19.70
2023-05-19T09:20:41.787Z,20.18
2023-05-19T09:23:11.631Z,20.38
2023-05-19T09:25:38.492Z,20.21
2023-05-19T09:28:05.409Z,20.47
2023-05-19T09:30:32.513Z,21.35
2023-05-19T09:32:59.478Z,22.25
2023-05-19T09:35:26.389Z,21.49
2023-05-19T09:37:53.222Z,20.90
2023-05-19T09:40:20.157Z,20.19
2023-05-19T09:42:48.948Z,20.66
2023-05-19T09:45:16.604Z,20.76
2023-05-19T09:47:44.100Z,20.35
2023-05-19T09:50:12.163Z,20.25
2023-05-19T09:53:07.994Z,21.29
2023-05-19T09:55:35.204Z,22.01
2023-05-19T09:58:04.336Z,21.81
2023-05-19T10:03:46.955Z,22.86
2023-05-19T10:15:46.711Z,23.10
2023-05-19T10:21:04.061Z,22.85
2023-05-19T10:23:31.007Z,22.43
2023-05-19T10:26:25.203Z,22.29
2023-05-19T10:28:54.769Z,21.67
2023-05-19T10:31:22.770Z,22.04
2023-05-19T10:34:11.383Z,22.59
2023-05-19T10:37:09.921Z,23.26
2023-05-19T10:39:37.177Z,22.64
2023-05-19T10:42:34.581Z,22.72
2023-05-19T10:45:10.787Z,22.71
2023-05-19T10:47:37.597Z,22.21
2023-05-19T10:50:04.766Z,21.79
2023-05-19T10:53:02.308Z,21.99
2023-05-19T10:56:06.397Z,22.58
2023-05-19T10:59:03.772Z,22.85
2023-05-19T11:01:34.449Z,23.29
2023-05-19T11:04:05.008Z,23.47
2023-05-19T11:06:38.218Z,23.49
2023-05-19T11:09:15.495Z,22.61
2023-05-19T11:11:55.026Z,22.74
2023-05-19T11:14:33.505Z,23.32
2023-05-19T11:17:01.102Z,23.38
2023-05-19T11:19:31.991Z,22.91
2023-05-19T11:22:13.437Z,22.47
2023-05-19T11:24:40.712Z,22.14
2023-05-19T11:27:26.618Z,21.68
2023-05-19T11:29:53.970Z,20.99
2023-05-19T11:32:21.911Z,20.55
2023-05-19T11:34:49.727Z,20.22
2023-05-19T11:37:16.694Z,19.60
2023-05-19T11:39:43.987Z,19.58
2023-05-19T11:42:11.675Z,19.63
2023-05-19T11:44:41.557Z,19.79
2023-05-19T11:47:08.815Z,19.73
2023-05-19T11:49:36.405Z,19.51
2023-05-19T11:52:04.228Z,19.67
2023-05-19T11:54:32.349Z,19.34
2023-05-19T11:57:03.521Z,19.57
2023-05-19T11:59:36.109Z,20.07
2023-05-19T12:02:04.620Z,20.40
2023-05-19T12:04:32.244Z,20.53
2023-05-19T12:06:59.671Z,20.71
2023-05-19T12:09:26.504Z,20.43
2023-05-19T12:11:53.945Z,20.18
2023-05-19T12:14:20.917Z,20.40
2023-05-19T12:16:48.180Z,20.55
2023-05-19T12:19:15.388Z,20.83
2023-05-19T12:21:42.266Z,20.91
2023-05-19T12:24:09.202Z,21.01
2023-05-19T12:26:37.131Z,20.73
2023-05-19T12:29:07.546Z,20.48
2023-05-19T12:31:34.597Z,20.55
2023-05-19T12:34:02.293Z,20.30
2023-05-19T12:36:29.360Z,20.12
2023-05-19T12:38:56.264Z,20.29
2023-05-19T12:41:24.438Z,20.32
2023-05-19T12:43:51.502Z,20.49
2023-05-19T12:46:22.927Z,20.77
2023-05-19T12:48:50.113Z,20.99
2023-05-19T12:51:20.112Z,21.15
2023-05-19T12:53:47.972Z,21.10
2023-05-19T12:56:15.284Z,21.14
2023-05-19T12:58:42.935Z,21.22
2023-05-19T13:01:17.871Z,20.93
2023-05-19T13:03:46.327Z,21.17
2023-05-19T13:06:13.316Z,21.48
2023-05-19T13:08:41.250Z,21.49
2023-05-19T13:11:08.926Z,21.50
2023-05-19T13:13:36.580Z,21.36
2023-05-19T13:16:03.614Z,21.24
2023-05-19T13:18:35.481Z,21.10
2023-05-19T13:21:03.706Z,21.44
2023-05-19T13:23:30.570Z,21.75
2023-05-19T13:25:59.515Z,21.91
2023-05-19T13:28:26.478Z,21.75
2023-05-19T13:30:53.638Z,21.50
2023-05-19T13:33:20.584Z,21.31
2023-05-19T13:35:47.519Z,21.39
2023-05-19T13:38:14.778Z,21.63
2023-05-19T13:40:50.900Z,21.37
2023-05-19T13:43:20.092Z,21.15
2023-05-19T13:45:47.110Z,21.20
2023-05-19T13:48:14.925Z,20.67
2023-05-19T13:50:42.719Z,20.48
2023-05-19T13:53:11.590Z,20.42
2023-05-19T13:55:38.535Z,20.50
2023-05-19T13:58:05.400Z,20.54
2023-05-19T14:00:33.104Z,20.92
2023-05-19T14:03:00.563Z,21.59
2023-05-19T14:05:29.263Z,21.44
2023-05-19T14:07:56.324Z,21.12
2023-05-19T14:10:23.505Z,21.03
2023-05-19T14:13:25.394Z,20.99
2023-05-19T14:15:56.230Z,20.78
2023-05-19T14:18:29.885Z,20.31
2023-05-19T14:20:56.949Z,20.46
2023-05-19T14:23:24.811Z,20.60
2023-05-19T14:25:54.446Z,20.63
2023-05-19T14:28:21.451Z,20.76
2023-05-19T14:30:49.013Z,20.94
2023-05-19T14:33:16.991Z,20.98
2023-05-19T14:35:43.848Z,20.91
2023-05-19T14:38:10.818Z,20.94
2023-05-19T14:40:38.521Z,21.37
2023-05-19T14:43:05.453Z,21.60
2023-05-19T14:45:32.314Z,21.21
2023-05-19T14:47:59.321Z,21.95
2023-05-19T14:50:28.587Z,22.93
2023-05-19T14:52:56.748Z,23.49
2023-05-19T14:55:23.774Z,23.75
2023-05-19T14:57:51.062Z,24.15
2023-05-19T15:00:18.137Z,24.38
2023-05-19T15:02:46.302Z,25.08
2023-05-19T15:05:19.135Z,26.00
2023-05-19T15:07:46.283Z,27.10
2023-05-19T15:10:13.445Z,28.00
2023-05-19T15:12:42.835Z,28.61
2023-05-19T15:15:12.578Z,29.19
2023-05-19T15:17:42.569Z,29.07
2023-05-19T15:20:09.733Z,27.85
2023-05-19T15:22:36.607Z,26.13
2023-05-19T15:25:08.425Z,24.84
2023-05-19T15:27:36.546Z,23.38
2023-05-19T15:30:21.826Z,21.77
2023-05-19T15:32:51.695Z,20.52
2023-05-19T15:35:18.574Z,19.97
2023-05-19T15:37:48.422Z,19.74
2023-05-19T15:40:17.035Z,19.49
2023-05-19T15:42:46.534Z,19.21
2023-05-19T15:45:13.408Z,19.13
2023-05-19T15:47:41.578Z,19.20
2023-05-19T15:50:08.842Z,19.08
2023-05-19T15:52:37.040Z,19.10
2023-05-19T15:55:04.133Z,19.02
2023-05-19T15:57:33.583Z,18.84
2023-05-19T16:00:00.868Z,18.69
2023-05-19T16:02:29.159Z,18.76
2023-05-19T16:04:56.138Z,18.67
2023-05-19T16:07:23.918Z,18.50
2023-05-19T16:09:51.107Z,18.44
2023-05-19T16:12:18.017Z,18.31
2023-05-19T16:14:47.837Z,18.17
2023-05-19T16:17:15.326Z,18.02
2023-05-19T16:19:42.247Z,17.85
2023-05-19T16:22:09.197Z,17.73
2023-05-19T16:24:36.627Z,17.63
2023-05-19T16:27:03.618Z,17.48
2023-05-19T16:29:30.840Z,17.34
2023-05-19T16:31:57.673Z,17.33
2023-05-19T16:34:24.617Z,17.26
2023-05-19T16:36:51.483Z,17.15
2023-05-19T16:39:18.381Z,16.99
2023-05-19T16:41:45.408Z,16.85
2023-05-19T16:44:14.747Z,16.71
2023-05-19T16:46:41.682Z,16.58
2023-05-19T16:49:09.205Z,16.49
2023-05-19T16:51:36.334Z,16.38
2023-05-19T16:54:03.247Z,16.24
2023-05-19T16:56:30.079Z,16.19
2023-05-19T16:58:57.149Z,16.11
2023-05-19T17:01:24.127Z,16.05
2023-05-19T17:03:51.140Z,15.95
2023-05-19T17:06:19.186Z,15.90
2023-05-19T17:08:46.340Z,15.85
2023-05-19T17:24:29.042Z,15.16
2023-05-19T17:26:55.975Z,15.15
2023-05-19T17:29:23.071Z,15.04
2023-05-19T17:31:52.374Z,14.90
2023-05-19T17:34:19.207Z,14.74
2023-05-19T17:36:46.008Z,14.64
2023-05-19T17:39:12.866Z,14.51
2023-05-19T17:41:39.688Z,14.38
2023-05-19T17:44:06.996Z,14.29
2023-05-19T17:46:38.956Z,14.24
2023-05-19T17:49:06.512Z,14.05
2023-05-19T17:51:52.040Z,14.00
2023-05-19T17:54:19.068Z,13.81
2023-05-19T17:56:45.997Z,13.68
2023-05-19T17:59:14.698Z,13.55
2023-05-19T18:01:41.798Z,13.42
2023-05-19T18:04:09.015Z,13.34
2023-05-19T18:06:38.944Z,13.33
2023-05-19T18:09:12.104Z,13.34
2023-05-19T18:11:38.938Z,13.28
2023-05-19T18:14:06.890Z,13.22
2023-05-19T18:16:33.796Z,13.18
2023-05-19T18:19:01.037Z,13.14
2023-05-19T18:21:28.062Z,13.06
2023-05-19T18:23:54.935Z,12.99
2023-05-19T18:26:21.738Z,12.94
2023-05-19T18:28:48.711Z,12.88
2023-05-19T18:31:33.931Z,12.76
2023-05-19T18:34:00.949Z,12.78
2023-05-19T18:36:27.756Z,12.72
2023-05-19T18:38:55.276Z,12.64
2023-05-19T18:41:22.092Z,12.54
2023-05-19T18:43:49.050Z,12.42
2023-05-19T18:46:17.472Z,12.40
2023-05-19T18:48:44.569Z,12.34
2023-05-19T18:51:11.440Z,12.27
2023-05-19T18:53:38.245Z,12.15
2023-05-19T18:56:05.246Z,12.06
2023-05-19T18:58:32.364Z,12.06
2023-05-19T19:00:59.349Z,12.00
2023-05-19T19:03:26.714Z,11.94
2023-05-19T19:06:12.024Z,11.90
2023-05-19T19:08:38.850Z,11.85
2023-05-19T19:11:09.414Z,11.78
2023-05-19T19:13:36.407Z,11.73
2023-05-19T19:16:03.450Z,11.64
2023-05-19T19:18:30.284Z,11.58
2023-05-19T19:20:57.849Z,11.49
2023-05-19T19:23:43.434Z,11.41
2023-05-19T19:26:10.224Z,11.39
2023-05-19T19:28:37.162Z,11.39
2023-05-19T19:31:04.055Z,11.34
2023-05-19T19:33:31.554Z,11.35
2023-05-19T19:35:58.398Z,11.28
2023-05-19T19:38:25.249Z,11.26
2023-05-19T19:40:52.643Z,11.21
2023-05-19T19:43:19.592Z,11.15
2023-05-19T19:45:49.327Z,11.10
2023-05-19T19:48:16.412Z,11.07
2023-05-19T19:50:43.256Z,11.03
2023-05-19T19:53:10.166Z,11.00
2023-05-19T19:55:37.023Z,10.93
2023-05-19T19:58:03.771Z,10.82
2023-05-19T20:00:30.965Z,10.81
2023-05-19T20:03:04.903Z,10.78
2023-05-19T20:05:33.000Z,10.76
2023-05-19T20:07:59.903Z,10.72
2023-05-19T20:10:26.781Z,10.61
2023-05-19T20:12:53.680Z,10.53
2023-05-19T20:15:20.585Z,10.45
2023-05-19T20:17:47.394Z,10.41
2023-05-19T20:20:14.878Z,10.44
2023-05-19T20:22:41.922Z,10.38
2023-05-19T20:25:08.986Z,10.31
2023-05-19T20:27:35.980Z,10.24
2023-05-19T20:30:02.759Z,10.21
2023-05-19T20:32:30.323Z,10.20
2023-05-19T20:34:57.379Z,10.20
2023-05-19T20:37:24.173Z,10.14
2023-05-19T20:39:51.100Z,10.09
2023-05-19T20:42:18.054Z,10.03
2023-05-19T20:44:44.835Z,9.96
2023-05-19T20:47:11.787Z,9.91
2023-05-19T20:49:38.627Z,9.86
2023-05-19T20:52:05.632Z,9.76
2023-05-19T20:54:33.430Z,9.69
2023-05-19T20:57:00.437Z,9.69
2023-05-19T20:59:27.225Z,9.64
2023-05-19T21:01:54.057Z,9.57
2023-05-19T21:04:21.613Z,9.48
2023-05-19T21:06:48.466Z,9.43
2023-05-19T21:09:15.763Z,9.45
2023-05-19T21:11:42.688Z,9.44
2023-05-19T21:14:09.504Z,9.39
2023-05-19T21:16:38.916Z,9.41
2023-05-19T21:19:09.440Z,9.37
2023-05-19T21:21:38.412Z,9.38
2023-05-19T21:24:05.458Z,9.33
2023-05-19T21:26:32.232Z,9.25
2023-05-19T21:28:59.034Z,9.16
2023-05-19T21:31:26.118Z,9.14
2023-05-19T21:33:53.012Z,9.05
2023-05-19T21:36:19.792Z,9.02
2023-05-19T21:38:46.721Z,9.05
2023-05-19T21:41:13.751Z,9.08
2023-05-19T21:43:45.304Z,9.05
2023-05-19T21:46:12.193Z,9.04
2023-05-19T21:48:39.670Z,9.09
2023-05-19T21:51:07.004Z,9.22
2023-05-19T21:53:34.354Z,9.35
2023-05-19T21:56:01.301Z,9.38
2023-05-19T21:58:28.265Z,9.44
2023-05-19T22:00:56.140Z,9.48
2023-05-19T22:03:23.875Z,9.49
2023-05-19T22:05:51.863Z,9.50
2023-05-19T22:08:19.266Z,9.52
2023-05-19T22:10:51.124Z,9.53
2023-05-19T22:13:18.197Z,9.53
2023-05-19T22:15:45.233Z,9.50
2023-05-19T22:18:12.390Z,9.46
2023-05-19T22:20:39.328Z,9.38
2023-05-19T22:23:06.249Z,9.26
2023-05-19T22:25:33.121Z,9.17
2023-05-19T22:28:01.346Z,9.11
2023-05-19T22:30:28.138Z,9.05
2023-05-19T22:32:55.117Z,9.02
2023-05-19T22:35:22.020Z,9.03
2023-05-19T22:37:48.797Z,9.00
2023-05-19T22:40:15.676Z,8.96
2023-05-19T22:42:42.490Z,8.92
2023-05-19T22:45:09.719Z,8.90
2023-05-19T22:47:36.908Z,8.82
2023-05-19T22:50:04.247Z,8.79
2023-05-19T22:52:31.388Z,8.74
2023-05-19T22:54:58.245Z,8.64
2023-05-19T22:57:24.975Z,8.62
2023-05-19T22:59:51.713Z,8.60
2023-05-19T23:02:19.417Z,8.59
2023-05-19T23:04:46.349Z,8.54
2023-05-19T23:07:13.245Z,8.49
2023-05-19T23:09:40.033Z,8.50
2023-05-19T23:12:07.102Z,8.55
2023-05-19T23:14:34.040Z,8.60
2023-05-19T23:17:00.890Z,8.60
2023-05-19T23:19:29.243Z,8.57
2023-05-19T23:21:56.161Z,8.59
2023-05-19T23:24:23.204Z,8.54
2023-05-19T23:26:49.993Z,8.49
2023-05-19T23:29:16.767Z,8.50
2023-05-19T23:31:44.614Z,8.47
2023-05-19T23:34:12.680Z,8.45
2023-05-19T23:36:39.462Z,8.44
2023-05-19T23:39:06.406Z,8.43
2023-05-19T23:41:33.149Z,8.46
2023-05-19T23:44:00.077Z,8.54
2023-05-19T23:46:27.027Z,8.57
2023-05-19T23:48:53.850Z,8.56
2023-05-19T23:51:20.889Z,8.60
2023-05-19T23:53:47.721Z,8.60
2023-05-19T23:56:14.471Z,8.61
2023-05-19T23:58:41.266Z,8.67
